Aeroporto :
LOGIN :

Iscrizione | Disclaimer

   EN    FR    IT 

 










Sommario :    VFR   VFR Marginale   IFR   IFR Intensivo   IFR Molto Intensivo
Visibilità : 
Base nubi : 
>= 8 km
>= 3000ft
5 / 8 km
1000 / 3000 ft
1500m / 5 km
500 / 1000 ft
800 / 1500m
200 / 500 ft
< 800m
< 200 ft
Simboli :   Temporali  Nebbia  Neve Forte  Precipitazioni Forti  Vento > 20 kt
SIGMETs :   Varie  Temporali  Ghiacco  Turbolenza  Onda orograficha  Ceneri Vulcaniche






- Altitudine del aeroporto : 79 ft
- Codice IATA : SPU


LDSP - Split

ULTIMO METAR :
  • 250030Z AUTO 33004KT CAVOK 08/05 Q1017

METARs OBSOLETI :
  • 250000Z AUTO 34005KT CAVOK 08/06 Q1017
  • 242330Z AUTO 35004KT CAVOK 07/05 Q1018
  • 242300Z AUTO 01003KT CAVOK 07/05 Q1018
  • 242230Z AUTO 01004KT CAVOK 09/06 Q1018
  • 242200Z AUTO 01003KT CAVOK 08/06 Q1018

TAF TAF LDSP
Valido dal 25 a 00 ore il 26 a 00 ore UTC


242325Z 2500/2600 VRB02KT CAVOK TX15/2513Z TN05/2504Z
BECMG 2509/2511 11012KT



MetMap, La meteo Aeronautica in un colpo d'occhio ! - Copyright ORBIFLY Dicembre 2007 - Disclaimer

ORBIFLY MET'MAP TEAM :

Programmazione e sviluppo : Alexandra Zaïnal
Concezione : Baudouin d'Aumeries
Aiuto per la programmazione : Marc-Olivier Méhu
Supporto tecnico e logistico : Manuel Goepfert
Aiuto per la traduzione : Arnaldo La Scala

Contatto : metmap@orbifly.com




FONTI E CREDITI :

   NOAA